sensor_id;sensor_type;location;lat;lon;timestamp;P1;durP1;ratioP1;P2;durP2;ratioP2
80732;SDS011;70130;44.534;18.678;2023-08-06T00:01:48;15.43;;;9.18;;
80732;SDS011;70130;44.534;18.678;2023-08-06T00:04:14;11.93;;;8.35;;
80732;SDS011;70130;44.534;18.678;2023-08-06T00:06:39;15.80;;;8.55;;
80732;SDS011;70130;44.534;18.678;2023-08-06T00:09:05;12.70;;;8.10;;
80732;SDS011;70130;44.534;18.678;2023-08-06T00:11:30;11.50;;;7.53;;
80732;SDS011;70130;44.534;18.678;2023-08-06T00:13:56;11.93;;;7.65;;
80732;SDS011;70130;44.534;18.678;2023-08-06T00:16:22;11.57;;;7.88;;
80732;SDS011;70130;44.534;18.678;2023-08-06T00:18:47;12.40;;;7.80;;
80732;SDS011;70130;44.534;18.678;2023-08-06T00:21:13;13.07;;;7.65;;
80732;SDS011;70130;44.534;18.678;2023-08-06T00:23:39;12.18;;;8.27;;
80732;SDS011;70130;44.534;18.678;2023-08-06T00:26:05;12.50;;;8.00;;
80732;SDS011;70130;44.534;18.678;2023-08-06T00:28:30;12.60;;;8.07;;
80732;SDS011;70130;44.534;18.678;2023-08-06T00:30:56;12.35;;;8.10;;
80732;SDS011;70130;44.534;18.678;2023-08-06T00:33:22;11.77;;;7.60;;
80732;SDS011;70130;44.534;18.678;2023-08-06T00:35:48;12.95;;;8.60;;
80732;SDS011;70130;44.534;18.678;2023-08-06T00:38:14;11.68;;;7.85;;
80732;SDS011;70130;44.534;18.678;2023-08-06T00:40:40;17.27;;;8.23;;
80732;SDS011;70130;44.534;18.678;2023-08-06T00:43:06;12.63;;;8.20;;
80732;SDS011;70130;44.534;18.678;2023-08-06T00:45:33;13.48;;;7.95;;
80732;SDS011;70130;44.534;18.678;2023-08-06T00:48:02;13.20;;;8.40;;
80732;SDS011;70130;44.534;18.678;2023-08-06T00:50:29;14.48;;;8.93;;
80732;SDS011;70130;44.534;18.678;2023-08-06T00:52:56;16.10;;;8.75;;
80732;SDS011;70130;44.534;18.678;2023-08-06T00:55:22;17.90;;;7.63;;
80732;SDS011;70130;44.534;18.678;2023-08-06T00:57:48;12.52;;;7.40;;
80732;SDS011;70130;44.534;18.678;2023-08-06T01:00:13;9.82;;;6.90;;
80732;SDS011;70130;44.534;18.678;2023-08-06T01:02:39;12.73;;;7.20;;
80732;SDS011;70130;44.534;18.678;2023-08-06T01:05:04;12.60;;;7.25;;
80732;SDS011;70130;44.534;18.678;2023-08-06T01:10:58;16.23;;;6.88;;
80732;SDS011;70130;44.534;18.678;2023-08-06T01:13:42;10.57;;;6.60;;
80732;SDS011;70130;44.534;18.678;2023-08-06T01:16:14;9.55;;;6.55;;
80732;SDS011;70130;44.534;18.678;2023-08-06T01:18:42;9.88;;;5.60;;
80732;SDS011;70130;44.534;18.678;2023-08-06T01:21:12;13.35;;;5.90;;
80732;SDS011;70130;44.534;18.678;2023-08-06T01:23:38;9.27;;;5.43;;
80732;SDS011;70130;44.534;18.678;2023-08-06T01:28:33;7.97;;;6.28;;
80732;SDS011;70130;44.534;18.678;2023-08-06T01:31:02;8.88;;;6.15;;
80732;SDS011;70130;44.534;18.678;2023-08-06T01:33:32;8.35;;;5.80;;
80732;SDS011;70130;44.534;18.678;2023-08-06T01:35:59;10.32;;;6.03;;
80732;SDS011;70130;44.534;18.678;2023-08-06T01:38:30;11.23;;;5.32;;
80732;SDS011;70130;44.534;18.678;2023-08-06T01:40:56;8.70;;;5.63;;
80732;SDS011;70130;44.534;18.678;2023-08-06T01:43:22;6.97;;;4.57;;
80732;SDS011;70130;44.534;18.678;2023-08-06T01:45:47;8.07;;;4.80;;
80732;SDS011;70130;44.534;18.678;2023-08-06T01:48:13;6.20;;;4.60;;
80732;SDS011;70130;44.534;18.678;2023-08-06T01:50:38;10.55;;;4.95;;
80732;SDS011;70130;44.534;18.678;2023-08-06T01:53:04;6.57;;;4.60;;
80732;SDS011;70130;44.534;18.678;2023-08-06T01:55:29;7.45;;;4.57;;
80732;SDS011;70130;44.534;18.678;2023-08-06T01:57:57;6.68;;;4.20;;
80732;SDS011;70130;44.534;18.678;2023-08-06T02:00:23;9.02;;;4.97;;
80732;SDS011;70130;44.534;18.678;2023-08-06T02:02:49;4.50;;;3.83;;
80732;SDS011;70130;44.534;18.678;2023-08-06T02:05:15;4.97;;;4.07;;
80732;SDS011;70130;44.534;18.678;2023-08-06T02:07:40;7.60;;;4.90;;
80732;SDS011;70130;44.534;18.678;2023-08-06T02:10:07;11.20;;;4.32;;
80732;SDS011;70130;44.534;18.678;2023-08-06T02:12:33;4.68;;;3.78;;
80732;SDS011;70130;44.534;18.678;2023-08-06T02:14:59;6.88;;;4.07;;
80732;SDS011;70130;44.534;18.678;2023-08-06T02:17:24;5.15;;;3.90;;
80732;SDS011;70130;44.534;18.678;2023-08-06T02:19:50;7.60;;;3.90;;
80732;SDS011;70130;44.534;18.678;2023-08-06T02:22:15;4.40;;;3.67;;
80732;SDS011;70130;44.534;18.678;2023-08-06T02:24:41;4.07;;;3.40;;
80732;SDS011;70130;44.534;18.678;2023-08-06T02:27:09;7.93;;;4.00;;
80732;SDS011;70130;44.534;18.678;2023-08-06T02:29:34;3.88;;;3.25;;
80732;SDS011;70130;44.534;18.678;2023-08-06T02:32:00;4.57;;;3.88;;
80732;SDS011;70130;44.534;18.678;2023-08-06T02:34:27;6.70;;;3.97;;
80732;SDS011;70130;44.534;18.678;2023-08-06T02:36:53;4.32;;;3.90;;
80732;SDS011;70130;44.534;18.678;2023-08-06T02:39:18;5.93;;;4.13;;
80732;SDS011;70130;44.534;18.678;2023-08-06T02:41:44;5.45;;;4.10;;
80732;SDS011;70130;44.534;18.678;2023-08-06T02:44:10;4.95;;;3.78;;
80732;SDS011;70130;44.534;18.678;2023-08-06T02:46:35;6.32;;;4.00;;
80732;SDS011;70130;44.534;18.678;2023-08-06T02:49:02;4.68;;;3.75;;
80732;SDS011;70130;44.534;18.678;2023-08-06T02:51:27;4.90;;;3.75;;
80732;SDS011;70130;44.534;18.678;2023-08-06T02:53:53;4.28;;;3.40;;
80732;SDS011;70130;44.534;18.678;2023-08-06T02:56:20;4.70;;;3.92;;
80732;SDS011;70130;44.534;18.678;2023-08-06T02:58:58;4.22;;;3.38;;
80732;SDS011;70130;44.534;18.678;2023-08-06T03:01:32;6.95;;;3.78;;
80732;SDS011;70130;44.534;18.678;2023-08-06T03:04:05;3.83;;;3.50;;
80732;SDS011;70130;44.534;18.678;2023-08-06T03:09:02;5.38;;;3.65;;
80732;SDS011;70130;44.534;18.678;2023-08-06T03:11:28;5.15;;;3.70;;
80732;SDS011;70130;44.534;18.678;2023-08-06T03:13:59;3.97;;;3.50;;
80732;SDS011;70130;44.534;18.678;2023-08-06T03:16:26;4.93;;;3.55;;
80732;SDS011;70130;44.534;18.678;2023-08-06T03:18:53;5.97;;;4.13;;
80732;SDS011;70130;44.534;18.678;2023-08-06T03:21:19;6.38;;;4.13;;
80732;SDS011;70130;44.534;18.678;2023-08-06T03:23:48;6.20;;;4.32;;
80732;SDS011;70130;44.534;18.678;2023-08-06T03:26:16;5.78;;;4.38;;
80732;SDS011;70130;44.534;18.678;2023-08-06T03:28:43;9.45;;;4.88;;
80732;SDS011;70130;44.534;18.678;2023-08-06T03:31:09;6.88;;;4.55;;
80732;SDS011;70130;44.534;18.678;2023-08-06T03:33:41;8.10;;;5.38;;
80732;SDS011;70130;44.534;18.678;2023-08-06T03:36:12;10.30;;;5.15;;
80732;SDS011;70130;44.534;18.678;2023-08-06T03:38:38;8.75;;;5.25;;
80732;SDS011;70130;44.534;18.678;2023-08-06T03:41:06;6.97;;;5.55;;
80732;SDS011;70130;44.534;18.678;2023-08-06T03:43:31;7.13;;;5.18;;
80732;SDS011;70130;44.534;18.678;2023-08-06T03:45:57;5.97;;;4.25;;
80732;SDS011;70130;44.534;18.678;2023-08-06T03:48:23;5.97;;;4.53;;
80732;SDS011;70130;44.534;18.678;2023-08-06T03:50:49;5.22;;;4.20;;
80732;SDS011;70130;44.534;18.678;2023-08-06T03:53:17;4.70;;;3.83;;
80732;SDS011;70130;44.534;18.678;2023-08-06T03:55:42;6.05;;;4.20;;
80732;SDS011;70130;44.534;18.678;2023-08-06T03:58:08;5.38;;;4.38;;
80732;SDS011;70130;44.534;18.678;2023-08-06T04:00:33;6.45;;;4.05;;
80732;SDS011;70130;44.534;18.678;2023-08-06T04:02:59;6.50;;;4.00;;
80732;SDS011;70130;44.534;18.678;2023-08-06T04:05:27;7.55;;;3.92;;
80732;SDS011;70130;44.534;18.678;2023-08-06T04:07:52;5.03;;;3.92;;
80732;SDS011;70130;44.534;18.678;2023-08-06T04:10:19;5.93;;;4.20;;
80732;SDS011;70130;44.534;18.678;2023-08-06T04:12:44;4.45;;;3.65;;
80732;SDS011;70130;44.534;18.678;2023-08-06T04:15:10;10.35;;;4.70;;
80732;SDS011;70130;44.534;18.678;2023-08-06T04:17:35;6.38;;;4.28;;
80732;SDS011;70130;44.534;18.678;2023-08-06T04:20:01;4.78;;;4.10;;
80732;SDS011;70130;44.534;18.678;2023-08-06T04:22:27;8.50;;;4.20;;
80732;SDS011;70130;44.534;18.678;2023-08-06T04:24:53;4.45;;;4.05;;
80732;SDS011;70130;44.534;18.678;2023-08-06T04:27:18;7.95;;;4.53;;
80732;SDS011;70130;44.534;18.678;2023-08-06T04:29:45;4.80;;;4.05;;
80732;SDS011;70130;44.534;18.678;2023-08-06T04:32:11;8.20;;;4.22;;
80732;SDS011;70130;44.534;18.678;2023-08-06T04:34:43;5.35;;;4.47;;
80732;SDS011;70130;44.534;18.678;2023-08-06T04:37:09;9.80;;;4.47;;
80732;SDS011;70130;44.534;18.678;2023-08-06T04:39:34;5.82;;;4.05;;
80732;SDS011;70130;44.534;18.678;2023-08-06T04:42:00;5.63;;;3.67;;
80732;SDS011;70130;44.534;18.678;2023-08-06T04:44:26;5.28;;;3.88;;
80732;SDS011;70130;44.534;18.678;2023-08-06T04:46:52;4.35;;;3.85;;
80732;SDS011;70130;44.534;18.678;2023-08-06T04:49:20;6.63;;;3.30;;
80732;SDS011;70130;44.534;18.678;2023-08-06T04:51:46;5.13;;;3.47;;
80732;SDS011;70130;44.534;18.678;2023-08-06T04:54:11;5.80;;;3.25;;
80732;SDS011;70130;44.534;18.678;2023-08-06T04:56:37;3.80;;;2.95;;
80732;SDS011;70130;44.534;18.678;2023-08-06T04:59:02;6.13;;;3.00;;
80732;SDS011;70130;44.534;18.678;2023-08-06T05:01:28;3.42;;;2.67;;
80732;SDS011;70130;44.534;18.678;2023-08-06T05:03:54;3.25;;;2.75;;
80732;SDS011;70130;44.534;18.678;2023-08-06T05:06:19;3.95;;;2.55;;
80732;SDS011;70130;44.534;18.678;2023-08-06T05:08:45;3.13;;;2.60;;
80732;SDS011;70130;44.534;18.678;2023-08-06T05:11:10;4.30;;;2.63;;
80732;SDS011;70130;44.534;18.678;2023-08-06T05:13:36;3.05;;;2.65;;
80732;SDS011;70130;44.534;18.678;2023-08-06T05:16:01;2.38;;;2.17;;
80732;SDS011;70130;44.534;18.678;2023-08-06T05:18:27;3.60;;;2.40;;
80732;SDS011;70130;44.534;18.678;2023-08-06T05:20:53;2.30;;;2.10;;
80732;SDS011;70130;44.534;18.678;2023-08-06T05:23:19;2.53;;;2.33;;
80732;SDS011;70130;44.534;18.678;2023-08-06T05:25:44;2.70;;;2.17;;
80732;SDS011;70130;44.534;18.678;2023-08-06T05:28:10;3.55;;;2.53;;
80732;SDS011;70130;44.534;18.678;2023-08-06T05:30:38;2.20;;;2.00;;
80732;SDS011;70130;44.534;18.678;2023-08-06T05:33:04;2.80;;;1.88;;
80732;SDS011;70130;44.534;18.678;2023-08-06T05:35:30;2.45;;;2.22;;
80732;SDS011;70130;44.534;18.678;2023-08-06T05:37:55;2.00;;;1.83;;
80732;SDS011;70130;44.534;18.678;2023-08-06T05:40:21;3.72;;;2.03;;
80732;SDS011;70130;44.534;18.678;2023-08-06T05:42:46;2.35;;;2.15;;
80732;SDS011;70130;44.534;18.678;2023-08-06T05:45:12;4.20;;;2.45;;
80732;SDS011;70130;44.534;18.678;2023-08-06T05:47:38;4.10;;;2.15;;
80732;SDS011;70130;44.534;18.678;2023-08-06T05:50:03;2.65;;;2.45;;
80732;SDS011;70130;44.534;18.678;2023-08-06T05:52:29;2.78;;;2.40;;
80732;SDS011;70130;44.534;18.678;2023-08-06T05:54:55;3.05;;;2.50;;
80732;SDS011;70130;44.534;18.678;2023-08-06T05:57:20;3.97;;;2.45;;
80732;SDS011;70130;44.534;18.678;2023-08-06T05:59:46;3.60;;;2.45;;
80732;SDS011;70130;44.534;18.678;2023-08-06T06:02:12;3.10;;;2.45;;
80732;SDS011;70130;44.534;18.678;2023-08-06T06:04:37;2.95;;;2.70;;
80732;SDS011;70130;44.534;18.678;2023-08-06T06:07:03;2.70;;;2.50;;
80732;SDS011;70130;44.534;18.678;2023-08-06T06:09:29;3.05;;;2.80;;
80732;SDS011;70130;44.534;18.678;2023-08-06T06:11:54;2.50;;;2.30;;
80732;SDS011;70130;44.534;18.678;2023-08-06T06:14:20;4.15;;;2.30;;
80732;SDS011;70130;44.534;18.678;2023-08-06T06:16:45;2.72;;;2.53;;
80732;SDS011;70130;44.534;18.678;2023-08-06T06:19:11;3.10;;;2.50;;
80732;SDS011;70130;44.534;18.678;2023-08-06T06:21:37;3.60;;;2.45;;
80732;SDS011;70130;44.534;18.678;2023-08-06T06:24:04;3.75;;;2.42;;
80732;SDS011;70130;44.534;18.678;2023-08-06T06:26:31;2.72;;;2.33;;
80732;SDS011;70130;44.534;18.678;2023-08-06T06:28:57;3.35;;;2.60;;
80732;SDS011;70130;44.534;18.678;2023-08-06T06:31:23;3.08;;;2.70;;
80732;SDS011;70130;44.534;18.678;2023-08-06T06:33:49;2.08;;;1.92;;
80732;SDS011;70130;44.534;18.678;2023-08-06T06:36:15;2.65;;;2.42;;
80732;SDS011;70130;44.534;18.678;2023-08-06T06:38:40;2.83;;;1.80;;
80732;SDS011;70130;44.534;18.678;2023-08-06T06:41:06;2.20;;;2.00;;
80732;SDS011;70130;44.534;18.678;2023-08-06T06:43:32;2.95;;;2.17;;
80732;SDS011;70130;44.534;18.678;2023-08-06T06:46:01;2.80;;;2.15;;
80732;SDS011;70130;44.534;18.678;2023-08-06T06:48:27;3.05;;;2.22;;
80732;SDS011;70130;44.534;18.678;2023-08-06T06:50:54;5.90;;;2.05;;
80732;SDS011;70130;44.534;18.678;2023-08-06T06:53:20;2.05;;;1.92;;
80732;SDS011;70130;44.534;18.678;2023-08-06T06:55:45;4.30;;;2.03;;
80732;SDS011;70130;44.534;18.678;2023-08-06T06:58:14;1.98;;;1.77;;
80732;SDS011;70130;44.534;18.678;2023-08-06T07:00:41;2.33;;;1.80;;
80732;SDS011;70130;44.534;18.678;2023-08-06T07:03:07;2.83;;;2.03;;
80732;SDS011;70130;44.534;18.678;2023-08-06T07:05:33;4.55;;;2.10;;
80732;SDS011;70130;44.534;18.678;2023-08-06T07:07:58;4.82;;;1.80;;
80732;SDS011;70130;44.534;18.678;2023-08-06T07:10:24;2.00;;;1.60;;
80732;SDS011;70130;44.534;18.678;2023-08-06T07:12:49;5.60;;;3.13;;
80732;SDS011;70130;44.534;18.678;2023-08-06T07:15:15;1.80;;;1.70;;
80732;SDS011;70130;44.534;18.678;2023-08-06T07:17:42;3.15;;;1.40;;
80732;SDS011;70130;44.534;18.678;2023-08-06T07:20:08;1.70;;;1.60;;
80732;SDS011;70130;44.534;18.678;2023-08-06T07:22:34;2.45;;;1.48;;
80732;SDS011;70130;44.534;18.678;2023-08-06T07:25:00;1.60;;;1.50;;
80732;SDS011;70130;44.534;18.678;2023-08-06T07:27:26;2.33;;;1.70;;
80732;SDS011;70130;44.534;18.678;2023-08-06T07:29:52;2.15;;;1.95;;
80732;SDS011;70130;44.534;18.678;2023-08-06T07:32:18;1.45;;;1.35;;
80732;SDS011;70130;44.534;18.678;2023-08-06T07:34:43;2.10;;;1.63;;
80732;SDS011;70130;44.534;18.678;2023-08-06T07:37:09;3.40;;;1.60;;
80732;SDS011;70130;44.534;18.678;2023-08-06T07:39:34;2.35;;;1.70;;
80732;SDS011;70130;44.534;18.678;2023-08-06T07:42:00;2.22;;;1.80;;
80732;SDS011;70130;44.534;18.678;2023-08-06T07:44:27;1.80;;;1.70;;
80732;SDS011;70130;44.534;18.678;2023-08-06T07:46:53;2.05;;;1.80;;
80732;SDS011;70130;44.534;18.678;2023-08-06T07:49:18;1.80;;;1.70;;
80732;SDS011;70130;44.534;18.678;2023-08-06T07:51:44;2.65;;;1.60;;
80732;SDS011;70130;44.534;18.678;2023-08-06T07:54:09;1.60;;;1.50;;
80732;SDS011;70130;44.534;18.678;2023-08-06T07:56:35;1.75;;;1.65;;
80732;SDS011;70130;44.534;18.678;2023-08-06T07:59:02;2.53;;;1.40;;
80732;SDS011;70130;44.534;18.678;2023-08-06T08:01:27;1.73;;;1.58;;
80732;SDS011;70130;44.534;18.678;2023-08-06T08:03:53;1.60;;;1.50;;
80732;SDS011;70130;44.534;18.678;2023-08-06T08:06:18;4.35;;;1.85;;
80732;SDS011;70130;44.534;18.678;2023-08-06T08:08:44;3.60;;;2.28;;
80732;SDS011;70130;44.534;18.678;2023-08-06T08:11:10;2.97;;;2.70;;
80732;SDS011;70130;44.534;18.678;2023-08-06T08:13:35;2.95;;;1.55;;
80732;SDS011;70130;44.534;18.678;2023-08-06T08:16:01;1.73;;;1.50;;
80732;SDS011;70130;44.534;18.678;2023-08-06T08:18:27;2.80;;;2.30;;
80732;SDS011;70130;44.534;18.678;2023-08-06T08:20:53;2.33;;;1.80;;
80732;SDS011;70130;44.534;18.678;2023-08-06T08:23:19;3.42;;;2.60;;
80732;SDS011;70130;44.534;18.678;2023-08-06T08:25:44;2.15;;;1.98;;
80732;SDS011;70130;44.534;18.678;2023-08-06T08:28:10;2.78;;;2.00;;
80732;SDS011;70130;44.534;18.678;2023-08-06T08:30:35;1.90;;;1.80;;
80732;SDS011;70130;44.534;18.678;2023-08-06T08:33:01;4.28;;;2.28;;
80732;SDS011;70130;44.534;18.678;2023-08-06T08:35:26;2.40;;;2.15;;
80732;SDS011;70130;44.534;18.678;2023-08-06T08:37:52;2.28;;;2.08;;
80732;SDS011;70130;44.534;18.678;2023-08-06T08:40:18;2.90;;;1.95;;
80732;SDS011;70130;44.534;18.678;2023-08-06T08:42:44;2.25;;;1.80;;
80732;SDS011;70130;44.534;18.678;2023-08-06T08:45:14;3.53;;;2.25;;
80732;SDS011;70130;44.534;18.678;2023-08-06T08:47:43;3.22;;;1.80;;
80732;SDS011;70130;44.534;18.678;2023-08-06T08:50:10;2.45;;;2.25;;
80732;SDS011;70130;44.534;18.678;2023-08-06T08:52:39;2.85;;;1.95;;
80732;SDS011;70130;44.534;18.678;2023-08-06T08:55:07;1.92;;;1.83;;
80732;SDS011;70130;44.534;18.678;2023-08-06T08:57:33;2.00;;;1.70;;
80732;SDS011;70130;44.534;18.678;2023-08-06T08:59:59;2.75;;;1.40;;
80732;SDS011;70130;44.534;18.678;2023-08-06T09:02:25;3.05;;;1.80;;
80732;SDS011;70130;44.534;18.678;2023-08-06T09:04:55;2.97;;;1.98;;
80732;SDS011;70130;44.534;18.678;2023-08-06T09:07:24;1.50;;;1.40;;
80732;SDS011;70130;44.534;18.678;2023-08-06T09:09:51;2.40;;;1.33;;
80732;SDS011;70130;44.534;18.678;2023-08-06T09:12:18;1.77;;;1.20;;
80732;SDS011;70130;44.534;18.678;2023-08-06T09:14:44;1.30;;;1.20;;
80732;SDS011;70130;44.534;18.678;2023-08-06T09:17:09;2.25;;;2.00;;
80732;SDS011;70130;44.534;18.678;2023-08-06T09:19:41;3.67;;;2.80;;
80732;SDS011;70130;44.534;18.678;2023-08-06T09:22:11;4.00;;;2.85;;
80732;SDS011;70130;44.534;18.678;2023-08-06T09:24:39;5.70;;;2.20;;
80732;SDS011;70130;44.534;18.678;2023-08-06T09:27:10;2.17;;;1.98;;
80732;SDS011;70130;44.534;18.678;2023-08-06T09:32:05;2.63;;;2.17;;
80732;SDS011;70130;44.534;18.678;2023-08-06T09:34:30;1.60;;;1.50;;
80732;SDS011;70130;44.534;18.678;2023-08-06T09:36:56;1.50;;;1.40;;
80732;SDS011;70130;44.534;18.678;2023-08-06T09:39:26;2.35;;;1.38;;
80732;SDS011;70130;44.534;18.678;2023-08-06T09:41:56;4.40;;;1.40;;
80732;SDS011;70130;44.534;18.678;2023-08-06T09:44:23;2.97;;;1.60;;
80732;SDS011;70130;44.534;18.678;2023-08-06T09:47:00;1.30;;;1.20;;
80732;SDS011;70130;44.534;18.678;2023-08-06T09:51:53;1.20;;;1.10;;
80732;SDS011;70130;44.534;18.678;2023-08-06T09:54:23;1.20;;;1.10;;
80732;SDS011;70130;44.534;18.678;2023-08-06T09:56:49;3.35;;;1.50;;
80732;SDS011;70130;44.534;18.678;2023-08-06T09:59:16;2.55;;;1.55;;
80732;SDS011;70130;44.534;18.678;2023-08-06T10:01:42;2.35;;;1.50;;
80732;SDS011;70130;44.534;18.678;2023-08-06T10:04:09;1.67;;;1.40;;
80732;SDS011;70130;44.534;18.678;2023-08-06T10:06:36;2.88;;;1.63;;
80732;SDS011;70130;44.534;18.678;2023-08-06T10:09:03;3.40;;;1.20;;
80732;SDS011;70130;44.534;18.678;2023-08-06T10:11:29;1.75;;;1.30;;
80732;SDS011;70130;44.534;18.678;2023-08-06T10:14:30;1.45;;;1.35;;
80732;SDS011;70130;44.534;18.678;2023-08-06T10:16:58;1.27;;;1.17;;
80732;SDS011;70130;44.534;18.678;2023-08-06T10:19:25;1.80;;;1.40;;
80732;SDS011;70130;44.534;18.678;2023-08-06T10:22:08;2.20;;;1.80;;
80732;SDS011;70130;44.534;18.678;2023-08-06T10:24:50;1.20;;;1.10;;
80732;SDS011;70130;44.534;18.678;2023-08-06T10:28:06;2.80;;;1.23;;
80732;SDS011;70130;44.534;18.678;2023-08-06T10:30:47;1.83;;;1.10;;
80732;SDS011;70130;44.534;18.678;2023-08-06T10:33:11;1.88;;;1.10;;
80732;SDS011;70130;44.534;18.678;2023-08-06T10:35:41;1.42;;;1.10;;
80732;SDS011;70130;44.534;18.678;2023-08-06T10:38:11;0.90;;;0.90;;
80732;SDS011;70130;44.534;18.678;2023-08-06T10:40:40;0.90;;;0.90;;
80732;SDS011;70130;44.534;18.678;2023-08-06T10:43:07;1.35;;;0.90;;
80732;SDS011;70130;44.534;18.678;2023-08-06T10:45:36;1.00;;;0.90;;
80732;SDS011;70130;44.534;18.678;2023-08-06T10:48:03;2.70;;;1.05;;
80732;SDS011;70130;44.534;18.678;2023-08-06T10:50:29;2.53;;;0.90;;
80732;SDS011;70130;44.534;18.678;2023-08-06T10:52:56;2.25;;;1.40;;
80732;SDS011;70130;44.534;18.678;2023-08-06T10:55:26;2.22;;;1.40;;
80732;SDS011;70130;44.534;18.678;2023-08-06T10:57:53;1.48;;;1.38;;
80732;SDS011;70130;44.534;18.678;2023-08-06T11:00:20;0.90;;;0.85;;
80732;SDS011;70130;44.534;18.678;2023-08-06T11:02:48;1.70;;;0.80;;
80732;SDS011;70130;44.534;18.678;2023-08-06T11:05:14;0.95;;;0.85;;
80732;SDS011;70130;44.534;18.678;2023-08-06T11:07:40;0.70;;;0.70;;
80732;SDS011;70130;44.534;18.678;2023-08-06T11:10:07;2.50;;;0.90;;
80732;SDS011;70130;44.534;18.678;2023-08-06T11:12:34;2.28;;;0.75;;
80732;SDS011;70130;44.534;18.678;2023-08-06T11:15:00;1.60;;;0.85;;
80732;SDS011;70130;44.534;18.678;2023-08-06T11:17:27;1.30;;;1.20;;
80732;SDS011;70130;44.534;18.678;2023-08-06T11:19:53;2.13;;;0.90;;
80732;SDS011;70130;44.534;18.678;2023-08-06T11:22:20;2.05;;;0.88;;
80732;SDS011;70130;44.534;18.678;2023-08-06T11:24:46;1.80;;;1.05;;
80732;SDS011;70130;44.534;18.678;2023-08-06T11:27:13;1.60;;;1.00;;
80732;SDS011;70130;44.534;18.678;2023-08-06T11:29:39;0.80;;;0.80;;
80732;SDS011;70130;44.534;18.678;2023-08-06T11:32:06;1.35;;;1.02;;
80732;SDS011;70130;44.534;18.678;2023-08-06T11:34:32;1.45;;;1.00;;
80732;SDS011;70130;44.534;18.678;2023-08-06T11:36:57;1.98;;;1.30;;
80732;SDS011;70130;44.534;18.678;2023-08-06T11:39:23;1.50;;;1.10;;
80732;SDS011;70130;44.534;18.678;2023-08-06T11:41:49;1.67;;;0.95;;
80732;SDS011;70130;44.534;18.678;2023-08-06T11:44:16;1.75;;;1.25;;
80732;SDS011;70130;44.534;18.678;2023-08-06T11:46:54;3.05;;;1.48;;
80732;SDS011;70130;44.534;18.678;2023-08-06T11:52:24;1.88;;;1.40;;
80732;SDS011;70130;44.534;18.678;2023-08-06T11:55:00;4.65;;;1.10;;
80732;SDS011;70130;44.534;18.678;2023-08-06T11:57:31;8.73;;;2.58;;
80732;SDS011;70130;44.534;18.678;2023-08-06T12:00:04;3.35;;;2.03;;
80732;SDS011;70130;44.534;18.678;2023-08-06T12:02:41;3.60;;;1.23;;
80732;SDS011;70130;44.534;18.678;2023-08-06T12:05:11;2.42;;;0.98;;
80732;SDS011;70130;44.534;18.678;2023-08-06T12:07:38;3.55;;;1.27;;
80732;SDS011;70130;44.534;18.678;2023-08-06T12:10:06;1.67;;;1.10;;
80732;SDS011;70130;44.534;18.678;2023-08-06T12:12:33;2.60;;;1.40;;
80732;SDS011;70130;44.534;18.678;2023-08-06T12:14:59;4.70;;;2.10;;
80732;SDS011;70130;44.534;18.678;2023-08-06T12:17:25;2.97;;;1.63;;
80732;SDS011;70130;44.534;18.678;2023-08-06T12:19:50;2.10;;;0.90;;
80732;SDS011;70130;44.534;18.678;2023-08-06T12:22:16;1.42;;;0.68;;
80732;SDS011;70130;44.534;18.678;2023-08-06T12:24:42;0.93;;;0.50;;
80732;SDS011;70130;44.534;18.678;2023-08-06T12:27:08;2.03;;;0.70;;
80732;SDS011;70130;44.534;18.678;2023-08-06T12:29:34;1.23;;;0.75;;
80732;SDS011;70130;44.534;18.678;2023-08-06T12:32:01;1.00;;;0.70;;
80732;SDS011;70130;44.534;18.678;2023-08-06T12:34:27;1.30;;;0.68;;
80732;SDS011;70130;44.534;18.678;2023-08-06T12:36:52;0.80;;;0.80;;
80732;SDS011;70130;44.534;18.678;2023-08-06T12:39:18;1.02;;;0.60;;
80732;SDS011;70130;44.534;18.678;2023-08-06T12:41:43;1.75;;;0.70;;
80732;SDS011;70130;44.534;18.678;2023-08-06T12:44:11;1.48;;;0.60;;
80732;SDS011;70130;44.534;18.678;2023-08-06T12:46:37;2.28;;;0.93;;
80732;SDS011;70130;44.534;18.678;2023-08-06T12:49:03;3.47;;;1.08;;
80732;SDS011;70130;44.534;18.678;2023-08-06T12:51:29;4.10;;;0.93;;
80732;SDS011;70130;44.534;18.678;2023-08-06T12:53:54;1.50;;;1.00;;
80732;SDS011;70130;44.534;18.678;2023-08-06T12:56:20;1.52;;;0.73;;
80732;SDS011;70130;44.534;18.678;2023-08-06T12:58:46;0.73;;;0.60;;
80732;SDS011;70130;44.534;18.678;2023-08-06T13:01:11;0.80;;;0.70;;
80732;SDS011;70130;44.534;18.678;2023-08-06T13:03:36;2.60;;;0.82;;
80732;SDS011;70130;44.534;18.678;2023-08-06T13:06:02;2.97;;;0.90;;
80732;SDS011;70130;44.534;18.678;2023-08-06T13:08:28;1.17;;;0.82;;
80732;SDS011;70130;44.534;18.678;2023-08-06T13:10:53;2.55;;;0.98;;
80732;SDS011;70130;44.534;18.678;2023-08-06T13:13:19;3.08;;;0.70;;
80732;SDS011;70130;44.534;18.678;2023-08-06T13:15:45;3.17;;;0.80;;
80732;SDS011;70130;44.534;18.678;2023-08-06T13:18:10;2.55;;;0.93;;
80732;SDS011;70130;44.534;18.678;2023-08-06T13:20:37;2.17;;;1.10;;
80732;SDS011;70130;44.534;18.678;2023-08-06T13:23:05;1.75;;;0.82;;
80732;SDS011;70130;44.534;18.678;2023-08-06T13:25:30;2.35;;;0.98;;
80732;SDS011;70130;44.534;18.678;2023-08-06T13:28:01;0.70;;;0.70;;
80732;SDS011;70130;44.534;18.678;2023-08-06T13:30:30;0.88;;;0.73;;
80732;SDS011;70130;44.534;18.678;2023-08-06T13:32:56;1.25;;;0.70;;
80732;SDS011;70130;44.534;18.678;2023-08-06T13:35:22;1.02;;;0.60;;
80732;SDS011;70130;44.534;18.678;2023-08-06T13:37:48;0.90;;;0.70;;
80732;SDS011;70130;44.534;18.678;2023-08-06T13:40:14;1.45;;;0.85;;
80732;SDS011;70130;44.534;18.678;2023-08-06T13:42:39;1.17;;;0.80;;
80732;SDS011;70130;44.534;18.678;2023-08-06T13:45:05;2.50;;;0.82;;
80732;SDS011;70130;44.534;18.678;2023-08-06T13:47:32;1.42;;;0.70;;
80732;SDS011;70130;44.534;18.678;2023-08-06T13:49:57;3.88;;;0.90;;
80732;SDS011;70130;44.534;18.678;2023-08-06T13:52:24;2.65;;;0.80;;
80732;SDS011;70130;44.534;18.678;2023-08-06T13:54:51;1.08;;;0.70;;
80732;SDS011;70130;44.534;18.678;2023-08-06T13:57:17;2.03;;;0.93;;
80732;SDS011;70130;44.534;18.678;2023-08-06T13:59:42;0.70;;;0.70;;
80732;SDS011;70130;44.534;18.678;2023-08-06T14:02:09;0.80;;;0.77;;
80732;SDS011;70130;44.534;18.678;2023-08-06T14:04:35;1.23;;;0.95;;
80732;SDS011;70130;44.534;18.678;2023-08-06T14:07:02;0.68;;;0.68;;
80732;SDS011;70130;44.534;18.678;2023-08-06T14:09:28;1.27;;;0.73;;
80732;SDS011;70130;44.534;18.678;2023-08-06T14:11:54;1.92;;;1.00;;
80732;SDS011;70130;44.534;18.678;2023-08-06T14:14:19;1.90;;;1.30;;
80732;SDS011;70130;44.534;18.678;2023-08-06T14:16:52;4.60;;;3.10;;
80732;SDS011;70130;44.534;18.678;2023-08-06T14:19:19;3.63;;;3.30;;
80732;SDS011;70130;44.534;18.678;2023-08-06T14:21:45;7.53;;;6.07;;
80732;SDS011;70130;44.534;18.678;2023-08-06T14:24:10;8.00;;;5.85;;
80732;SDS011;70130;44.534;18.678;2023-08-06T14:26:36;9.77;;;7.97;;
80732;SDS011;70130;44.534;18.678;2023-08-06T14:29:02;14.77;;;10.43;;
80732;SDS011;70130;44.534;18.678;2023-08-06T14:31:28;12.20;;;9.98;;
80732;SDS011;70130;44.534;18.678;2023-08-06T14:33:53;9.30;;;6.70;;
80732;SDS011;70130;44.534;18.678;2023-08-06T14:36:19;7.72;;;6.93;;
80732;SDS011;70130;44.534;18.678;2023-08-06T14:38:45;10.13;;;5.53;;
80732;SDS011;70130;44.534;18.678;2023-08-06T14:41:11;8.57;;;7.68;;
80732;SDS011;70130;44.534;18.678;2023-08-06T14:43:36;9.27;;;7.82;;
80732;SDS011;70130;44.534;18.678;2023-08-06T14:46:02;11.90;;;9.05;;
80732;SDS011;70130;44.534;18.678;2023-08-06T14:48:28;5.70;;;4.75;;